Time;durP1;ratioP1;P1;durP2;ratioP2;P2;SDS_P1;SDS_P2;PMS_P1;PMS_P2;Temp;Humidity;BMP_temperature;BMP_pressure;BME280_temperature;BME280_humidity;BME280_pressure;Samples;Min_cycle;Max_cycle;Signal;HPM_P1;HPM_P2
2023/05/13 00:01:43;;;;;;;14.10;7.60;;;;;;;7.93;73.59;100842.48;105837;1259;72778;-68
2023/05/13 00:04:32;;;;;;;15.60;8.00;;;;;;;7.94;74.00;100845.60;105793;1255;66385;-71
2023/05/13 00:07:20;;;;;;;12.80;7.70;;;;;;;7.95;74.10;100846.07;105757;1261;72613;-71
2023/05/13 00:10:11;;;;;;;17.30;8.60;;;;;;;7.97;74.10;100843.52;105718;1259;59641;-68
2023/05/13 00:13:00;;;;;;;16.80;8.20;;;;;;;7.96;73.89;100845.33;105738;1256;60371;-68
2023/05/13 00:15:48;;;;;;;13.00;7.40;;;;;;;7.95;74.02;100843.60;105768;1259;72202;-69
2023/05/13 00:18:37;;;;;;;13.40;7.10;;;;;;;7.93;73.91;100843.02;105724;1262;68447;-69
2023/05/13 00:21:26;;;;;;;12.60;6.60;;;;;;;7.92;74.05;100844.31;105692;1260;72849;-69
2023/05/13 00:24:14;;;;;;;14.60;7.40;;;;;;;7.90;73.93;100845.33;105339;1265;59731;-71
2023/05/13 00:27:04;;;;;;;12.70;6.50;;;;;;;7.88;74.15;100844.02;105382;1259;60161;-71
2023/05/13 00:29:53;;;;;;;14.70;6.50;;;;;;;7.84;74.39;100843.31;105334;1260;73128;-69
2023/05/13 00:32:41;;;;;;;11.60;6.40;;;;;;;7.80;74.13;100844.05;105795;1259;67924;-70
2023/05/13 00:35:30;;;;;;;14.70;7.60;;;;;;;7.77;74.23;100841.24;105719;1262;72700;-71
2023/05/13 00:38:19;;;;;;;11.30;6.60;;;;;;;7.74;74.41;100842.80;105823;1262;59743;-71
2023/05/13 00:41:08;;;;;;;15.30;6.10;;;;;;;7.73;74.41;100844.30;105548;1257;60082;-70
2023/05/13 00:43:56;;;;;;;13.50;6.30;;;;;;;7.73;74.53;100841.98;105409;1262;72871;-71
2023/05/13 00:46:44;;;;;;;13.90;6.60;;;;;;;7.74;74.49;100841.91;105363;1260;66362;-69
2023/05/13 00:49:33;;;;;;;12.50;6.80;;;;;;;7.73;74.29;100845.66;105434;1259;72533;-70
2023/05/13 00:52:21;;;;;;;12.80;6.40;;;;;;;7.72;74.48;100842.55;105429;1265;59658;-70
2023/05/13 00:55:11;;;;;;;13.60;6.50;;;;;;;7.69;74.50;100846.24;105435;1260;59544;-69
2023/05/13 00:57:59;;;;;;;14.40;7.60;;;;;;;7.65;74.60;100843.60;105524;1261;72942;-69
2023/05/13 01:01:16;;;;;;;15.50;7.00;;;;;;;7.62;74.77;100846.80;105404;1259;66993;-69
2023/05/13 01:04:29;;;;;;;12.40;6.20;;;;;;;7.57;75.42;100846.34;105833;1259;71389;-70
2023/05/13 01:07:34;;;;;;;11.90;6.30;;;;;;;7.53;75.44;100845.35;105798;1259;59779;-70
2023/05/13 01:10:32;;;;;;;13.60;6.30;;;;;;;7.50;75.70;100843.33;105447;1266;59516;-68
2023/05/13 01:13:25;;;;;;;12.20;5.60;;;;;;;7.51;76.09;100843.64;105576;1260;73071;-70
2023/05/13 01:16:19;;;;;;;10.50;5.50;;;;;;;7.54;75.87;100849.33;105884;1259;66474;-69
2023/05/13 01:19:34;;;;;;;16.30;6.10;;;;;;;7.56;76.10;100852.59;105662;1260;72425;-69
2023/05/13 01:22:23;;;;;;;13.30;7.30;;;;;;;7.56;76.04;100853.27;105767;1258;59900;-69
2023/05/13 01:25:13;;;;;;;13.60;7.20;;;;;;;7.54;75.93;100851.83;105827;1254;60489;-69
2023/05/13 01:28:01;;;;;;;14.60;7.10;;;;;;;7.51;76.01;100856.39;105923;1256;72094;-68
2023/05/13 01:30:50;;;;;;;13.80;6.60;;;;;;;7.47;76.27;100855.14;105135;1256;1003389;-69
2023/05/13 01:33:42;;;;;;;15.60;6.80;;;;;;;7.44;76.46;100857.27;105648;1257;70757;-71
2023/05/13 01:36:31;;;;;;;13.10;6.90;;;;;;;7.40;76.51;100858.16;105847;1262;59822;-69
2023/05/13 01:39:20;;;;;;;12.90;6.00;;;;;;;7.37;76.26;100860.80;105721;1257;60296;-70
2023/05/13 01:42:09;;;;;;;11.80;5.90;;;;;;;7.36;76.48;100861.40;106003;1262;72485;-70
2023/05/13 01:44:58;;;;;;;12.50;5.40;;;;;;;7.35;76.62;100863.92;103910;1259;1003673;-70
2023/05/13 01:47:47;;;;;;;15.60;6.30;;;;;;;7.36;76.55;100864.93;105831;1256;72489;-68
2023/05/13 01:50:37;;;;;;;11.90;6.50;;;;;;;7.37;76.46;100863.28;106037;1259;59592;-71
2023/05/13 01:53:26;;;;;;;15.10;6.50;;;;;;;7.39;76.63;100865.15;105801;1261;59532;-71
2023/05/13 01:56:14;;;;;;;15.50;6.50;;;;;;;7.37;76.61;100863.30;105691;1257;71757;-71
2023/05/13 01:59:03;;;;;;;13.80;6.50;;;;;;;7.36;76.74;100865.83;105884;1258;67700;-72
2023/05/13 02:01:51;;;;;;;12.10;6.30;;;;;;;7.33;76.79;100867.01;105946;1255;73910;-72
2023/05/13 02:04:39;;;;;;;17.20;6.90;;;;;;;7.30;76.53;100866.78;105741;1260;59845;-70
2023/05/13 02:07:27;;;;;;;13.20;6.80;;;;;;;7.27;76.61;100876.30;105620;1256;59727;-71
2023/05/13 02:10:16;;;;;;;13.00;6.90;;;;;;;7.25;76.31;100876.60;105779;1257;71845;-70
2023/05/13 02:13:05;;;;;;;11.00;5.70;;;;;;;7.22;76.57;100874.09;105715;1260;67642;-71
2023/05/13 02:15:54;;;;;;;13.40;6.00;;;;;;;7.21;76.48;100874.33;105730;1259;72152;-69
2023/05/13 02:18:43;;;;;;;11.60;6.00;;;;;;;7.22;76.33;100875.52;106028;1259;59490;-69
2023/05/13 02:21:32;;;;;;;13.20;6.20;;;;;;;7.23;76.34;100877.24;106297;1254;59324;-69
2023/05/13 02:24:20;;;;;;;13.50;6.20;;;;;;;7.23;76.06;100870.86;108011;1256;72845;-70
2023/05/13 02:27:11;;;;;;;11.70;5.70;;;;;;;7.23;76.00;100876.16;107199;1258;66311;-69
2023/05/13 02:29:59;;;;;;;11.20;6.10;;;;;;;7.22;76.16;100875.13;107413;1254;71477;-67
2023/05/13 02:32:48;;;;;;;13.90;6.10;;;;;;;7.22;76.10;100872.86;106740;1258;59276;-68
2023/05/13 02:35:37;;;;;;;11.20;6.00;;;;;;;7.22;75.84;100877.11;105835;1261;60133;-70
2023/05/13 02:38:26;;;;;;;11.20;5.80;;;;;;;7.21;75.75;100879.61;105910;1256;70901;-71
2023/05/13 02:41:15;;;;;;;9.30;5.70;;;;;;;7.20;75.64;100874.92;105899;1254;67866;-72
2023/05/13 02:44:03;;;;;;;11.30;5.70;;;;;;;7.18;75.93;100876.24;105824;1256;71511;-72
2023/05/13 02:46:52;;;;;;;10.30;5.60;;;;;;;7.18;75.76;100876.41;105903;1259;59701;-72
2023/05/13 02:49:40;;;;;;;10.50;5.30;;;;;;;7.19;75.73;100880.46;105810;1262;59339;-71
2023/05/13 02:52:28;;;;;;;10.80;5.60;;;;;;;7.20;75.78;100876.88;105751;1256;73093;-69
2023/05/13 02:55:16;;;;;;;9.30;5.40;;;;;;;7.21;75.87;100876.62;105085;1256;1003107;-68
2023/05/13 02:58:04;;;;;;;11.70;5.40;;;;;;;7.23;76.16;100879.36;105945;1259;71302;-70
2023/05/13 03:00:54;;;;;;;10.40;5.60;;;;;;;7.24;76.04;100882.98;105877;1259;59521;-70
2023/05/13 03:03:45;;;;;;;9.70;5.70;;;;;;;7.26;75.79;100885.55;106004;1258;60139;-70
2023/05/13 03:06:34;;;;;;;10.70;5.70;;;;;;;7.27;75.98;100882.30;105787;1260;73653;-69
2023/05/13 03:09:22;;;;;;;10.90;5.20;;;;;;;7.27;75.81;100882.50;105575;1265;66363;-69
2023/05/13 03:12:10;;;;;;;10.40;5.40;;;;;;;7.27;76.11;100878.62;105517;1256;72770;-69
2023/05/13 03:14:58;;;;;;;10.00;5.40;;;;;;;7.28;75.79;100879.11;105770;1257;59691;-70
2023/05/13 03:17:46;;;;;;;10.40;5.40;;;;;;;7.29;75.59;100875.16;105693;1257;59638;-73
2023/05/13 03:20:36;;;;;;;11.00;5.00;;;;;;;7.31;75.73;100877.35;105688;1256;71793;-72
2023/05/13 03:23:25;;;;;;;10.50;4.80;;;;;;;7.35;75.50;100876.79;105653;1265;66288;-72
2023/05/13 03:26:15;;;;;;;12.00;5.30;;;;;;;7.39;75.24;100875.17;105825;1257;73884;-71
2023/05/13 03:29:04;;;;;;;11.00;5.30;;;;;;;7.46;75.13;100876.07;105701;1254;59610;-71
2023/05/13 03:31:54;;;;;;;10.90;5.60;;;;;;;7.52;75.10;100873.98;105908;1256;59545;-71
2023/05/13 03:34:43;;;;;;;10.20;5.60;;;;;;;7.59;75.16;100878.20;107755;1256;73770;-71
2023/05/13 03:37:31;;;;;;;11.80;5.00;;;;;;;7.67;74.59;100879.39;108587;1256;66992;-71
2023/05/13 03:40:19;;;;;;;10.70;5.50;;;;;;;7.75;74.25;100879.84;106226;1262;71518;-70
2023/05/13 03:43:10;;;;;;;10.70;5.30;;;;;;;7.82;73.92;100878.58;105119;1261;1003394;-66
2023/05/13 03:45:59;;;;;;;10.10;5.00;;;;;;;7.89;73.53;100879.10;106170;1260;59721;-71
2023/05/13 03:48:48;;;;;;;10.20;5.20;;;;;;;7.95;73.15;100877.52;105640;1257;70815;-71
2023/05/13 03:51:40;;;;;;;9.90;5.50;;;;;;;8.03;72.87;100877.64;105555;1267;65399;-70
2023/05/13 03:54:28;;;;;;;9.10;4.90;;;;;;;8.08;72.52;100878.79;105805;1259;71279;-71
2023/05/13 03:57:18;;;;;;;11.30;5.50;;;;;;;8.16;72.21;100879.09;105602;1266;59811;-72
2023/05/13 04:00:09;;;;;;;9.50;5.40;;;;;;;8.24;71.96;100885.20;105799;1264;60076;-72
2023/05/13 04:03:03;;;;;;;11.10;5.60;;;;;;;8.32;71.79;100884.56;105626;1265;72946;-72
2023/05/13 04:05:52;;;;;;;12.00;5.80;;;;;;;8.43;71.42;100886.80;105647;1264;67835;-73
2023/05/13 04:08:40;;;;;;;10.00;5.40;;;;;;;8.53;71.26;100886.62;105358;1269;72780;-71
2023/05/13 04:11:31;;;;;;;11.60;5.40;;;;;;;8.63;70.96;100888.70;105238;1263;59733;-67
2023/05/13 04:14:19;;;;;;;10.30;5.40;;;;;;;8.76;70.68;100890.48;105313;1263;60420;-69
2023/05/13 04:17:07;;;;;;;11.60;5.50;;;;;;;8.88;70.26;100892.61;105237;1263;72124;-69
2023/05/13 04:19:56;;;;;;;13.80;6.00;;;;;;;9.01;69.61;100894.87;105249;1268;67708;-69
2023/05/13 04:22:44;;;;;;;16.80;6.80;;;;;;;9.13;69.15;100896.09;105360;1265;72932;-69
2023/05/13 04:25:36;;;;;;;11.30;5.80;;;;;;;9.27;68.66;100899.90;105484;1265;59723;-70
2023/05/13 04:28:26;;;;;;;15.30;7.00;;;;;;;9.42;68.37;100898.83;105449;1265;60293;-70
2023/05/13 04:31:14;;;;;;;13.90;6.70;;;;;;;9.57;67.98;100898.50;105744;1265;72187;-71
2023/05/13 04:34:05;;;;;;;15.80;7.10;;;;;;;9.73;68.58;100895.42;105355;1261;66669;-70
2023/05/13 04:36:59;;;;;;;18.10;8.00;;;;;;;9.91;68.57;100898.73;106287;1262;71729;-70
2023/05/13 04:39:48;;;;;;;14.10;6.70;;;;;;;10.08;67.83;100900.70;105459;1265;59744;-72
2023/05/13 04:42:39;;;;;;;17.90;7.70;;;;;;;10.28;66.93;100901.05;105952;1263;59521;-72
2023/05/13 04:45:28;;;;;;;17.40;6.80;;;;;;;10.49;66.60;100900.85;105759;1260;71472;-72
2023/05/13 04:48:17;;;;;;;13.50;6.00;;;;;;;10.68;66.13;100898.18;105664;1258;67985;-70
2023/05/13 04:51:07;;;;;;;13.40;6.00;;;;;;;10.88;66.19;100896.15;105686;1266;72409;-71
2023/05/13 04:53:57;;;;;;;14.00;6.60;;;;;;;11.11;65.42;100895.03;105766;1264;59592;-69
2023/05/13 04:56:46;;;;;;;13.30;7.30;;;;;;;11.32;65.36;100898.21;105560;1257;60104;-73
2023/05/13 04:59:37;;;;;;;15.10;7.10;;;;;;;11.52;64.78;100901.16;105943;1264;73743;-73
2023/05/13 05:02:30;;;;;;;10.80;5.40;;;;;;;11.72;63.84;100899.82;105747;1263;67868;-71
2023/05/13 05:05:18;;;;;;;11.10;5.60;;;;;;;11.99;62.93;100905.59;105571;1265;72663;-73
2023/05/13 05:08:07;;;;;;;14.80;5.70;;;;;;;12.33;61.97;100900.16;105551;1267;59682;-73
2023/05/13 05:10:59;;;;;;;10.60;6.10;;;;;;;12.88;61.00;100901.33;105508;1261;59589;-72
2023/05/13 05:13:48;;;;;;;12.70;6.10;;;;;;;14.04;58.98;100901.41;105587;1263;73779;-72
2023/05/13 05:16:36;;;;;;;11.30;5.30;;;;;;;15.66;54.84;100895.86;105628;1258;68071;-71
2023/05/13 05:19:25;;;;;;;9.60;4.80;;;;;;;17.32;49.75;100891.52;105645;1262;71470;-70
2023/05/13 05:22:15;;;;;;;11.70;5.00;;;;;;;18.93;45.23;100885.42;106796;1260;59670;-74
2023/05/13 05:25:10;;;;;;;9.20;4.30;;;;;;;20.52;41.71;100886.63;108057;1260;59580;-73
2023/05/13 05:27:59;;;;;;;10.10;3.90;;;;;;;21.90;37.94;100884.92;105656;1267;73078;-74
2023/05/13 05:30:47;;;;;;;9.70;3.80;;;;;;;23.05;35.50;100880.39;105747;1259;66264;-72
2023/05/13 05:33:41;;;;;;;9.30;3.50;;;;;;;24.22;33.32;100886.62;105762;1254;72552;-71
2023/05/13 05:36:29;;;;;;;9.00;3.30;;;;;;;25.30;31.30;100886.27;105896;1259;59731;-70
2023/05/13 05:39:18;;;;;;;7.80;2.90;;;;;;;26.32;29.74;100887.28;105675;1254;60018;-70
2023/05/13 05:42:07;;;;;;;9.30;3.20;;;;;;;27.18;28.04;100881.17;106170;1260;73203;-72
2023/05/13 05:44:56;;;;;;;9.70;3.10;;;;;;;27.86;26.55;100879.20;105608;1255;231390;-72
2023/05/13 05:47:46;;;;;;;8.40;3.60;;;;;;;28.43;25.04;100877.55;105902;1254;71624;-71
2023/05/13 05:50:37;;;;;;;7.70;3.20;;;;;;;28.86;24.45;100884.88;105674;1260;59631;-71
2023/05/13 05:53:27;;;;;;;7.10;3.10;;;;;;;29.39;23.53;100885.59;105791;1257;59987;-73
2023/05/13 05:56:16;;;;;;;10.00;3.20;;;;;;;29.84;22.99;100884.07;105785;1265;71460;-73
2023/05/13 05:59:06;;;;;;;8.50;3.00;;;;;;;30.32;22.64;100887.70;105926;1259;67847;-75
2023/05/13 06:01:54;;;;;;;9.60;3.00;;;;;;;30.85;22.04;100885.82;106172;1254;71069;-72
2023/05/13 06:04:44;;;;;;;9.80;3.40;;;;;;;31.20;21.40;100885.77;106177;1263;59600;-74
2023/05/13 06:07:34;;;;;;;8.90;3.00;;;;;;;31.50;20.98;100887.36;105858;1264;59731;-74
2023/05/13 06:10:23;;;;;;;10.50;3.10;;;;;;;31.94;20.70;100885.94;106042;1260;73100;-74
2023/05/13 06:13:12;;;;;;;9.00;2.50;;;;;;;32.29;20.05;100884.33;105452;1264;67796;-73
2023/05/13 06:16:01;;;;;;;9.80;3.00;;;;;;;32.42;19.34;100884.15;105391;1264;71108;-75
2023/05/13 06:18:51;;;;;;;8.30;2.90;;;;;;;32.55;19.08;100881.60;105458;1266;59121;-75
2023/05/13 06:21:41;;;;;;;10.00;2.90;;;;;;;32.61;18.80;100881.33;105492;1269;60464;-72
2023/05/13 06:24:30;;;;;;;9.40;2.70;;;;;;;32.79;18.57;100877.54;105372;1265;73375;-72
2023/05/13 06:27:19;;;;;;;7.30;2.90;;;;;;;32.83;18.29;100877.89;105237;1264;69016;-75
2023/05/13 06:30:10;;;;;;;8.10;3.40;;;;;;;32.86;17.95;100876.51;105222;1268;72793;-74
2023/05/13 06:33:03;;;;;;;8.50;2.80;;;;;;;32.93;17.96;100872.71;105462;1268;59693;-75
2023/05/13 06:35:52;;;;;;;9.30;2.70;;;;;;;33.05;17.82;100874.41;105322;1264;60105;-74
2023/05/13 06:38:42;;;;;;;8.50;3.00;;;;;;;33.10;17.88;100875.55;105216;1267;73046;-73
2023/05/13 06:41:30;;;;;;;8.70;2.90;;;;;;;33.29;17.92;100881.93;105367;1262;67987;-75
2023/05/13 06:44:27;;;;;;;10.80;3.10;;;;;;;33.53;17.62;100880.43;105402;1264;72499;-74
2023/05/13 06:47:16;;;;;;;8.50;3.00;;;;;;;33.83;17.58;100882.70;105652;1260;60185;-76
2023/05/13 06:50:05;;;;;;;8.00;3.00;;;;;;;34.04;17.48;100882.70;105669;1260;59601;-75
2023/05/13 06:52:57;;;;;;;9.40;3.00;;;;;;;34.16;17.49;100882.73;105520;1260;72079;-76
2023/05/13 06:55:47;;;;;;;9.80;3.30;;;;;;;34.38;17.68;100880.98;105430;1268;68237;-76
2023/05/13 06:58:35;;;;;;;9.00;3.40;;;;;;;34.43;17.64;100879.38;105382;1264;72763;-77
2023/05/13 07:01:24;;;;;;;9.40;3.50;;;;;;;34.65;17.40;100882.64;105461;1269;59694;-76
2023/05/13 07:04:15;;;;;;;8.60;3.20;;;;;;;34.84;17.25;100884.20;105342;1270;59678;-76
2023/05/13 07:07:04;;;;;;;10.30;3.40;;;;;;;35.12;16.60;100882.39;105277;1270;71059;-75
2023/05/13 07:09:56;;;;;;;8.10;3.00;;;;;;;35.34;16.29;100881.29;105553;1264;66945;-75
2023/05/13 07:12:46;;;;;;;10.30;3.20;;;;;;;35.60;15.75;100877.34;105603;1280;72496;-73
2023/05/13 07:15:33;;;;;;;10.40;3.30;;;;;;;35.76;15.34;100872.02;105766;1271;60903;-76
2023/05/13 07:18:22;;;;;;;20.50;16.70;;;;;;;35.85;14.93;100869.29;105663;1267;61036;-80
2023/05/13 07:21:15;;;;;;;10.20;3.60;;;;;;;35.89;14.96;100869.94;105762;1267;73131;-78
2023/05/13 07:24:04;;;;;;;9.50;2.90;;;;;;;36.12;14.69;100868.20;106032;1260;69217;-74
2023/05/13 07:27:00;;;;;;;8.00;2.70;;;;;;;36.17;14.81;100863.34;106050;1268;72930;-75
2023/05/13 07:29:48;;;;;;;8.10;3.20;;;;;;;36.39;14.51;100865.32;105503;1267;59750;-75
2023/05/13 07:32:37;;;;;;;12.00;2.70;;;;;;;36.55;14.40;100864.08;106204;1264;59960;-79
2023/05/13 07:35:26;;;;;;;8.70;2.90;;;;;;;36.41;14.35;100863.60;106132;1261;71794;-80
2023/05/13 07:38:17;;;;;;;9.10;3.30;;;;;;;36.49;14.27;100862.07;106128;1257;66341;-78
2023/05/13 07:41:06;;;;;;;8.50;3.00;;;;;;;36.64;14.21;100856.65;106445;1256;71114;-76
2023/05/13 07:43:55;;;;;;;10.20;3.80;;;;;;;36.70;14.05;100859.27;105864;1263;59654;-75
2023/05/13 07:46:44;;;;;;;8.30;3.00;;;;;;;36.48;14.36;100858.30;105759;1256;60459;-73
2023/05/13 07:49:34;;;;;;;6.90;2.80;;;;;;;36.35;14.28;100854.27;105903;1257;71456;-73
2023/05/13 07:52:22;;;;;;;12.30;3.20;;;;;;;36.40;14.81;100854.67;106222;1255;66644;-75
2023/05/13 07:55:10;;;;;;;9.10;3.10;;;;;;;36.60;14.12;100855.61;106038;1256;71389;-74
2023/05/13 07:58:02;;;;;;;7.80;2.90;;;;;;;36.57;13.76;100855.10;106089;1257;59611;-70
2023/05/13 08:00:50;;;;;;;10.20;3.20;;;;;;;36.57;13.83;100856.48;105743;1257;60070;-74
2023/05/13 08:03:39;;;;;;;8.60;2.60;;;;;;;36.71;13.65;100854.34;105736;1263;73088;-75
2023/05/13 08:06:27;;;;;;;11.30;2.80;;;;;;;36.87;13.56;100849.77;105968;1257;67923;-69
2023/05/13 08:09:15;;;;;;;8.20;2.60;;;;;;;36.98;13.46;100851.66;105794;1258;71109;-75
2023/05/13 08:12:04;;;;;;;7.80;2.50;;;;;;;36.91;12.42;100850.23;105820;1257;59543;-73
2023/05/13 08:14:52;;;;;;;10.30;2.90;;;;;;;36.82;12.83;100854.86;105928;1258;59552;-74
2023/05/13 08:17:43;;;;;;;9.10;2.60;;;;;;;36.78;12.88;100855.42;106162;1264;74035;-71
2023/05/13 08:20:31;;;;;;;8.70;2.40;;;;;;;36.85;12.26;100856.31;108041;1255;68299;-74
2023/05/13 08:23:19;;;;;;;7.00;2.20;;;;;;;36.75;12.17;100856.74;108768;1257;71394;-74
2023/05/13 08:26:08;;;;;;;7.60;2.20;;;;;;;36.55;12.26;100852.04;108413;1256;59595;-76
2023/05/13 08:28:57;;;;;;;7.90;2.50;;;;;;;36.40;12.36;100850.85;108200;1257;59667;-77
2023/05/13 08:31:46;;;;;;;9.00;2.40;;;;;;;36.42;12.52;100852.40;106344;1256;72840;-76
2023/05/13 08:34:35;;;;;;;7.10;2.30;;;;;;;36.36;12.19;100849.03;106412;1257;66317;-76
2023/05/13 08:37:26;;;;;;;10.90;2.60;;;;;;;36.29;12.37;100848.52;105887;1257;72720;-75
2023/05/13 08:40:17;;;;;;;7.50;2.00;;;;;;;36.39;12.48;100848.91;105844;1262;59839;-74
2023/05/13 08:43:08;;;;;;;7.50;2.70;;;;;;;36.56;12.41;100849.01;105822;1257;61512;-74
2023/05/13 08:46:02;;;;;;;8.90;2.40;;;;;;;36.70;12.53;100849.46;105817;1258;72900;-75
2023/05/13 08:48:54;;;;;;;9.00;2.70;;;;;;;36.76;12.43;100843.65;105752;1260;67856;-70
2023/05/13 08:51:45;;;;;;;10.10;2.50;;;;;;;36.84;12.58;100842.06;106157;1254;73351;-74
2023/05/13 08:54:35;;;;;;;7.80;2.40;;;;;;;36.77;12.62;100837.55;106001;1263;59801;-73
2023/05/13 08:57:32;;;;;;;10.90;2.50;;;;;;;36.98;12.40;100838.41;106634;1257;59536;-74
2023/05/13 09:00:27;;;;;;;8.30;2.10;;;;;;;37.21;12.73;100836.33;106812;1259;71800;-71
2023/05/13 09:03:18;;;;;;;10.30;2.40;;;;;;;37.02;11.71;100834.40;105839;1260;68239;-73
2023/05/13 09:06:09;;;;;;;7.50;2.10;;;;;;;37.03;11.91;100831.41;105597;1261;71071;-72
2023/05/13 09:08:58;;;;;;;7.20;2.30;;;;;;;37.04;11.79;100831.69;105921;1260;59642;-76
2023/05/13 09:11:50;;;;;;;6.80;2.10;;;;;;;36.87;11.21;100831.96;105842;1261;60876;-73
2023/05/13 09:14:41;;;;;;;7.30;1.90;;;;;;;36.69;11.46;100835.39;106287;1260;72324;-75
2023/05/13 09:17:31;;;;;;;10.30;1.90;;;;;;;36.51;11.65;100833.80;105432;1265;67540;-72
2023/05/13 09:20:27;;;;;;;8.20;2.00;;;;;;;36.49;11.66;100830.64;105279;1268;72398;-73
2023/05/13 09:23:16;;;;;;;9.70;2.20;;;;;;;36.47;11.65;100833.90;105546;1260;59563;-74
2023/05/13 09:26:05;;;;;;;7.80;2.10;;;;;;;36.46;11.97;100832.70;105343;1270;59715;-74
2023/05/13 09:29:29;;;;;;;8.30;2.40;;;;;;;36.48;12.06;100830.63;105195;1266;73050;-74
2023/05/13 09:32:17;;;;;;;7.80;2.40;;;;;;;36.59;11.90;100828.38;106184;1261;66975;-73
2023/05/13 09:35:34;;;;;;;7.20;2.30;;;;;;;36.78;12.17;100827.85;105197;1262;71475;-71
2023/05/13 09:38:30;;;;;;;9.80;3.10;;;;;;;36.72;12.35;100824.73;105271;1269;59501;-75
2023/05/13 09:41:20;;;;;;;9.10;2.80;;;;;;;36.68;12.16;100823.67;105507;1264;59703;-72
2023/05/13 09:44:15;;;;;;;8.50;2.20;;;;;;;36.41;11.79;100820.33;105733;1260;72873;-72
2023/05/13 09:47:18;;;;;;;7.50;2.60;;;;;;;36.26;12.32;100818.34;105242;1272;66588;-74
2023/05/13 09:50:11;;;;;;;10.20;2.30;;;;;;;36.18;12.05;100814.20;105703;1265;71628;-73
2023/05/13 09:53:11;;;;;;;8.00;2.40;;;;;;;35.98;12.30;100817.52;105077;1273;59781;-76
2023/05/13 09:56:00;;;;;;;7.60;2.70;;;;;;;35.87;12.70;100814.27;105101;1271;59634;-73
2023/05/13 09:58:52;;;;;;;9.90;2.50;;;;;;;35.84;12.59;100813.70;104989;1267;73142;-75
2023/05/13 10:01:42;;;;;;;8.00;2.70;;;;;;;35.91;13.26;100810.09;105014;1270;68425;-73
2023/05/13 10:04:38;;;;;;;8.40;2.50;;;;;;;36.21;13.25;100812.16;105053;1268;74071;-75
2023/05/13 10:07:38;;;;;;;7.70;3.10;;;;;;;36.39;13.24;100807.46;105273;1266;59646;-70
2023/05/13 10:10:30;;;;;;;7.90;2.90;;;;;;;36.57;13.01;100803.11;105498;1267;60396;-70
2023/05/13 10:13:23;;;;;;;9.80;2.60;;;;;;;36.48;12.76;100804.81;105515;1264;72747;-72
2023/05/13 10:16:12;;;;;;;8.50;2.60;;;;;;;36.42;12.68;100807.59;105433;1263;66753;-72
2023/05/13 10:19:02;;;;;;;9.20;2.70;;;;;;;36.46;12.73;100806.76;105345;1258;71499;-72
2023/05/13 10:21:53;;;;;;;7.20;2.50;;;;;;;36.43;12.50;100805.48;105517;1263;59778;-72
2023/05/13 10:24:43;;;;;;;7.00;2.10;;;;;;;36.28;12.08;100805.83;105325;1265;60289;-71
2023/05/13 10:27:34;;;;;;;7.20;2.40;;;;;;;36.12;12.21;100806.71;106129;1261;71774;-72
2023/05/13 10:30:26;;;;;;;9.50;2.40;;;;;;;36.05;12.21;100809.02;105980;1256;66345;-75
2023/05/13 10:33:16;;;;;;;7.10;2.20;;;;;;;36.07;12.29;100800.23;105701;1257;71726;-81
2023/05/13 10:37:20;;;;;;;7.20;2.20;;;;;;;36.10;12.28;100802.56;106034;1256;59631;-81
2023/05/13 10:41:00;;;;;;;7.20;2.30;;;;;;;36.25;11.91;100803.33;105911;1260;60318;-81
2023/05/13 10:44:16;;;;;;;10.90;2.40;;;;;;;36.43;11.98;100796.77;105949;1269;71753;-83
2023/05/13 10:47:15;;;;;;;9.00;2.20;;;;;;;36.70;11.48;100797.06;105584;1270;69028;-81
2023/05/13 10:50:24;;;;;;;8.90;2.20;;;;;;;37.10;11.18;100795.23;105274;1270;72560;-81
2023/05/13 10:53:24;;;;;;;9.60;2.20;;;;;;;37.61;11.02;100796.52;105402;1271;59770;-80
2023/05/13 10:56:14;;;;;;;7.40;2.10;;;;;;;37.95;11.11;100794.89;105398;1270;59764;-79
2023/05/13 10:59:04;;;;;;;7.20;2.30;;;;;;;38.16;10.69;100794.44;104862;1276;72909;-79
2023/05/13 11:01:52;;;;;;;8.40;2.10;;;;;;;37.93;10.65;100788.95;104916;1270;68058;-80
2023/05/13 11:04:59;;;;;;;9.80;2.60;;;;;;;37.74;11.06;100786.47;104713;1271;71071;-79
2023/05/13 11:07:56;;;;;;;7.90;2.20;;;;;;;37.58;10.84;100786.80;104601;1270;59740;-80
2023/05/13 11:10:54;;;;;;;7.30;3.10;;;;;;;37.24;10.69;100781.19;105288;1267;60634;-80
2023/05/13 11:13:44;;;;;;;7.40;2.70;;;;;;;36.87;10.72;100779.11;105215;1272;73656;-79
2023/05/13 11:16:33;;;;;;;9.70;2.40;;;;;;;36.40;11.47;100770.55;105366;1270;68118;-77
2023/05/13 11:19:36;;;;;;;7.60;2.10;;;;;;;35.78;11.95;100773.36;105564;1264;71617;-78
2023/05/13 11:22:25;;;;;;;7.60;2.30;;;;;;;35.25;12.49;100766.61;108123;1262;57454;-76
2023/05/13 11:25:14;;;;;;;7.40;2.10;;;;;;;34.96;12.53;100764.26;107756;1263;59189;-79
2023/05/13 11:28:02;;;;;;;8.30;2.80;;;;;;;34.73;12.34;100765.77;108135;1259;71909;-79
2023/05/13 11:30:54;;;;;;;13.50;7.80;;;;;;;34.13;12.54;100766.67;106678;1263;66282;-78
2023/05/13 11:34:05;;;;;;;7.80;2.70;;;;;;;32.92;13.48;100768.33;106134;1260;71842;-78
2023/05/13 11:37:07;;;;;;;10.50;3.40;;;;;;;31.64;14.22;100771.09;106130;1263;59880;-79
2023/05/13 11:40:00;;;;;;;8.00;2.40;;;;;;;30.49;15.11;100770.67;105627;1264;60609;-78
2023/05/13 11:42:49;;;;;;;8.20;3.00;;;;;;;29.92;15.73;100770.87;105781;1259;71920;-80
2023/05/13 11:45:41;;;;;;;7.50;3.00;;;;;;;29.53;15.95;100767.16;105975;1255;68999;-80
2023/05/13 11:48:32;;;;;;;9.80;3.60;;;;;;;29.12;16.90;100766.16;106026;1261;73475;-78
2023/05/13 11:51:20;;;;;;;9.20;3.60;;;;;;;28.53;17.19;100759.81;105949;1259;59824;-79
2023/05/13 11:54:11;;;;;;;9.90;4.40;;;;;;;27.99;17.37;100753.17;106237;1260;59628;-78
2023/05/13 11:57:00;;;;;;;9.60;4.80;;;;;;;27.63;17.87;100756.58;105984;1260;72122;-78
2023/05/13 11:59:56;;;;;;;19.90;5.10;;;;;;;27.42;18.25;100762.26;106017;1258;67896;-79
2023/05/13 12:02:45;;;;;;;10.90;3.30;;;;;;;27.20;18.00;100757.15;106013;1257;71448;-79
2023/05/13 12:05:34;;;;;;;8.90;2.70;;;;;;;27.09;18.34;100755.33;105728;1256;59617;-79
2023/05/13 12:08:23;;;;;;;10.80;3.10;;;;;;;27.15;18.51;100753.21;106002;1255;60558;-79
2023/05/13 12:11:12;;;;;;;8.80;2.80;;;;;;;27.25;18.01;100750.71;106083;1257;73908;-79
2023/05/13 12:14:01;;;;;;;7.40;2.70;;;;;;;27.22;17.96;100751.06;105826;1256;67902;-77
2023/05/13 12:16:51;;;;;;;8.10;3.00;;;;;;;26.96;18.05;100748.39;106045;1256;72981;-80
2023/05/13 12:20:10;;;;;;;7.20;2.70;;;;;;;26.66;18.35;100751.20;105949;1261;59796;-79
2023/05/13 12:23:01;;;;;;;10.60;2.70;;;;;;;26.36;18.66;100749.98;106267;1258;60092;-80
2023/05/13 12:25:52;;;;;;;11.80;2.90;;;;;;;26.23;18.93;100750.48;106113;1256;73179;-80
2023/05/13 12:28:42;;;;;;;12.80;3.40;;;;;;;26.18;18.96;100751.66;105979;1255;68022;-80
2023/05/13 12:31:32;;;;;;;9.90;3.00;;;;;;;26.19;19.51;100752.16;106232;1255;72511;-80
2023/05/13 12:34:38;;;;;;;7.30;3.20;;;;;;;26.20;19.03;100750.41;106056;1256;59760;-80
2023/05/13 12:37:27;;;;;;;10.20;4.20;;;;;;;26.23;19.04;100753.43;106240;1260;59958;-81
2023/05/13 12:40:16;;;;;;;10.60;4.80;;;;;;;26.32;19.53;100751.27;106370;1257;73119;-80
2023/05/13 12:43:06;;;;;;;12.00;7.10;;;;;;;26.40;19.57;100746.34;106046;1258;68495;-81
2023/05/13 12:45:56;;;;;;;8.80;3.30;;;;;;;26.36;19.78;100737.46;106129;1260;72576;-80
2023/05/13 12:48:44;;;;;;;10.00;3.20;;;;;;;26.11;19.62;100748.58;106083;1257;59727;-82
2023/05/13 12:51:33;;;;;;;9.00;3.50;;;;;;;25.85;20.11;100747.91;105795;1257;59840;-80
2023/05/13 12:54:22;;;;;;;10.10;4.00;;;;;;;25.60;20.00;100746.78;105784;1257;73113;-81
2023/05/13 12:57:11;;;;;;;11.10;3.10;;;;;;;25.31;20.94;100755.45;105992;1257;68718;-83
2023/05/13 13:00:02;;;;;;;9.10;3.80;;;;;;;25.02;21.40;100756.75;106275;1264;71581;-81
2023/05/13 13:02:53;;;;;;;9.40;3.20;;;;;;;24.67;22.30;100762.83;105947;1264;59599;-81
2023/05/13 13:05:42;;;;;;;10.40;3.80;;;;;;;24.43;22.94;100760.98;105779;1264;59630;-80